Time;durP1;ratioP1;P1;durP2;ratioP2;P2;SDS_P1;SDS_P2;PMS_P1;PMS_P2;Temp;Humidity;BMP_temperature;BMP_pressure;BME280_temperature;BME280_humidity;BME280_pressure;Samples;Min_cycle;Max_cycle;Signal;HPM_P1;HPM_P2
2021/10/27 00:00:51;;;;;;;;;19.25;15.50;;;;;13.50;68.41;102385.78;4961282;28;46752;-75
2021/10/27 00:03:16;;;;;;;;;24.75;18.00;;;;;13.50;68.12;102382.28;4961839;28;45470;-75
2021/10/27 00:05:42;;;;;;;;;17.75;17.25;;;;;13.49;68.46;102389.31;4960539;28;46075;-75
2021/10/27 00:08:07;;;;;;;;;17.75;14.00;;;;;13.48;68.43;102395.47;4959251;28;46089;-75
2021/10/27 00:10:33;;;;;;;;;15.75;14.50;;;;;13.46;68.39;102391.13;4961465;28;45451;-78
2021/10/27 00:12:58;;;;;;;;;17.00;15.25;;;;;13.42;68.77;102387.69;4963522;28;45514;-78
2021/10/27 00:15:25;;;;;;;;;20.25;13.75;;;;;13.42;68.49;102386.81;4947388;28;46432;-77
2021/10/27 00:17:51;;;;;;;;;15.75;12.00;;;;;13.41;68.92;102388.56;4955529;28;46018;-76
2021/10/27 00:20:16;;;;;;;;;18.00;17.50;;;;;13.36;68.54;102383.38;4962306;28;45265;-76
2021/10/27 00:22:42;;;;;;;;;19.50;19.00;;;;;13.36;69.16;102393.94;4961970;28;45392;-77
2021/10/27 00:25:09;;;;;;;;;16.25;16.25;;;;;13.32;69.02;102384.34;4951007;28;45293;-77
2021/10/27 00:27:34;;;;;;;;;18.75;15.75;;;;;13.33;69.02;102388.75;4954137;28;45354;-78
2021/10/27 00:30:00;;;;;;;;;19.75;18.50;;;;;13.31;68.64;102395.78;4962486;28;45319;-78
2021/10/27 00:32:25;;;;;;;;;19.75;17.75;;;;;13.28;68.69;102386.16;4962314;28;45587;-78
2021/10/27 00:34:51;;;;;;;;;20.25;19.75;;;;;13.28;68.82;102395.88;4956224;28;45479;-78
2021/10/27 00:37:16;;;;;;;;;17.75;16.00;;;;;13.26;68.66;102392.41;4961277;28;45389;-77
2021/10/27 00:39:43;;;;;;;;;22.00;18.00;;;;;13.26;68.67;102398.53;4962536;28;45518;-76
2021/10/27 00:42:11;;;;;;;;;19.00;19.00;;;;;13.22;68.86;102391.56;4962725;28;45215;-77
2021/10/27 00:44:36;;;;;;;;;20.75;19.75;;;;;13.24;68.73;102400.31;4955049;28;45222;-76
2021/10/27 00:47:08;;;;;;;;;18.50;17.50;;;;;13.20;68.64;102389.84;4961127;28;45459;-77
2021/10/27 00:49:35;;;;;;;;;20.00;18.75;;;;;13.20;68.89;102400.41;4949893;28;45605;-77
2021/10/27 00:52:03;;;;;;;;;24.25;21.50;;;;;13.15;68.88;102397.84;4962854;28;45309;-75
2021/10/27 00:54:32;;;;;;;;;20.50;20.50;;;;;13.16;68.77;102408.38;4962686;28;45519;-76
2021/10/27 00:56:59;;;;;;;;;19.75;19.00;;;;;13.14;68.70;102404.00;4956501;28;45261;-76
2021/10/27 00:59:25;;;;;;;;;20.00;19.25;;;;;13.11;68.77;102399.66;4955860;28;45259;-76
2021/10/27 01:01:52;;;;;;;;;23.25;21.25;;;;;13.11;69.08;102398.81;4956191;28;45527;-75
2021/10/27 01:04:18;;;;;;;;;20.25;17.00;;;;;13.10;68.82;102402.34;4943370;28;45455;-75
2021/10/27 01:06:44;;;;;;;;;21.75;21.25;;;;;13.08;69.07;102401.50;4958671;28;45375;-75
2021/10/27 01:09:10;;;;;;;;;20.50;17.25;;;;;13.05;68.72;102391.84;4960946;28;45507;-75
2021/10/27 01:11:35;;;;;;;;;21.50;18.50;;;;;13.03;68.65;102402.44;4958491;28;45272;-75
2021/10/27 01:14:05;;;;;;;;;18.00;16.75;;;;;13.01;68.74;102391.03;4943102;28;45329;-75
2021/10/27 01:16:30;;;;;;;;;23.75;19.25;;;;;13.02;68.67;102399.81;4956255;28;45508;-76
2021/10/27 01:18:56;;;;;;;;;22.75;19.00;;;;;12.98;68.82;102399.00;4962199;28;45197;-76
2021/10/27 01:21:23;;;;;;;;;18.75;16.00;;;;;12.98;68.79;102404.28;4960941;28;45482;-76
2021/10/27 01:23:48;;;;;;;;;21.00;19.00;;;;;12.94;68.88;102397.28;4960244;28;46173;-76
2021/10/27 01:26:14;;;;;;;;;21.25;20.25;;;;;12.93;68.99;102395.56;4961821;28;45455;-76
2021/10/27 01:28:43;;;;;;;;;19.50;17.75;;;;;12.93;68.60;102387.66;4961535;28;45407;-76
2021/10/27 01:31:10;;;;;;;;;16.75;16.00;;;;;12.91;68.64;102389.44;4961877;28;45273;-74
2021/10/27 01:33:36;;;;;;;;;21.25;18.25;;;;;12.90;69.03;102390.34;4958777;28;45382;-74
2021/10/27 01:36:03;;;;;;;;;18.25;18.00;;;;;12.86;68.67;102383.38;4961192;28;45583;-74
2021/10/27 01:38:30;;;;;;;;;19.25;16.75;;;;;12.85;68.95;102377.22;4961261;28;45328;-75
2021/10/27 01:40:55;;;;;;;;;17.75;17.25;;;;;12.83;69.05;102374.63;4961900;28;45423;-76
2021/10/27 01:43:20;;;;;;;;;22.00;18.25;;;;;12.82;68.82;102378.13;4945758;28;46079;-76
2021/10/27 01:45:46;;;;;;;;;21.50;19.75;;;;;12.77;68.87;102372.06;4960092;28;46581;-76
2021/10/27 01:48:11;;;;;;;;;17.50;17.50;;;;;12.76;68.81;102372.97;4954438;28;45958;-76
2021/10/27 01:50:37;;;;;;;;;17.50;16.25;;;;;12.74;68.94;102368.63;4941302;28;45521;-76
2021/10/27 01:53:02;;;;;;;;;20.25;15.25;;;;;12.71;68.67;102366.91;4942321;28;45515;-76
2021/10/27 01:55:28;;;;;;;;;16.50;15.00;;;;;12.68;68.52;102366.94;4959681;28;46133;-75
2021/10/27 01:57:54;;;;;;;;;20.25;16.75;;;;;12.68;68.40;102366.94;4960021;28;45338;-75
2021/10/27 02:00:20;;;;;;;;;19.75;16.75;;;;;12.64;68.78;102368.78;4954621;28;45464;-75
2021/10/27 02:02:46;;;;;;;;;16.50;14.50;;;;;12.64;68.91;102365.25;4961565;28;45229;-74
2021/10/27 02:05:12;;;;;;;;;21.50;18.00;;;;;12.65;68.88;102365.22;4956670;28;46935;-75
2021/10/27 02:07:38;;;;;;;;;16.50;15.50;;;;;12.62;69.03;102356.50;4960124;28;46065;-75
2021/10/27 02:10:08;;;;;;;;;18.50;15.50;;;;;12.63;68.92;102355.59;4960360;28;45344;-75
2021/10/27 02:12:38;;;;;;;;;17.75;16.25;;;;;12.60;68.96;102348.59;4960097;28;47164;-76
2021/10/27 02:15:05;;;;;;;;;22.75;19.00;;;;;12.56;68.89;102342.50;4960111;28;46400;-76
2021/10/27 02:17:30;;;;;;;;;18.50;17.00;;;;;12.53;68.86;102342.53;4961417;28;45396;-77
2021/10/27 02:19:56;;;;;;;;;18.00;16.75;;;;;12.53;68.85;102350.47;4961449;28;45333;-75
2021/10/27 02:22:22;;;;;;;;;19.75;17.00;;;;;12.53;68.86;102345.19;4961382;28;45501;-76
2021/10/27 02:24:47;;;;;;;;;21.25;18.25;;;;;12.50;68.66;102345.22;4959883;28;46253;-76
2021/10/27 02:27:14;;;;;;;;;19.50;16.00;;;;;12.47;69.01;102346.13;4950392;28;45254;-76
2021/10/27 02:29:39;;;;;;;;;14.25;12.50;;;;;12.48;68.98;102347.00;4942030;28;45282;-76
2021/10/27 02:32:05;;;;;;;;;17.50;17.50;;;;;12.45;68.97;102336.50;4941524;28;45537;-76
2021/10/27 02:34:31;;;;;;;;;15.75;15.75;;;;;12.41;68.72;102340.97;4949614;28;45465;-76
2021/10/27 02:36:57;;;;;;;;;14.50;14.50;;;;;12.44;68.94;102353.25;4960625;28;45440;-75
2021/10/27 02:39:22;;;;;;;;;16.75;15.00;;;;;12.41;68.67;102361.19;4954191;28;45289;-75
2021/10/27 02:41:48;;;;;;;;;19.50;16.00;;;;;12.38;68.88;102352.44;4960871;28;45344;-75
2021/10/27 02:44:14;;;;;;;;;16.25;12.50;;;;;12.36;68.77;102350.72;4959392;28;45470;-75
2021/10/27 02:46:39;;;;;;;;;20.25;17.25;;;;;12.34;68.79;102350.75;4948324;28;45339;-76
2021/10/27 02:49:04;;;;;;;;;18.50;17.25;;;;;12.33;68.99;102348.09;4960926;28;45769;-75
2021/10/27 02:51:30;;;;;;;;;22.50;20.25;;;;;12.31;68.95;102353.41;4961338;28;45391;-75
2021/10/27 02:53:55;;;;;;;;;22.50;19.75;;;;;12.30;69.04;102354.28;4959849;28;46119;-76
2021/10/27 02:56:21;;;;;;;;;21.50;21.50;;;;;12.29;68.79;102347.28;4941789;28;45430;-75
2021/10/27 02:58:46;;;;;;;;;23.00;19.00;;;;;12.27;69.02;102360.47;4947183;28;45324;-75
2021/10/27 03:01:12;;;;;;;;;18.50;18.00;;;;;12.25;68.87;102351.72;4948052;28;45392;-76
2021/10/27 03:03:37;;;;;;;;;26.00;20.25;;;;;12.25;68.94;102353.47;4944884;28;47221;-77
2021/10/27 03:06:03;;;;;;;;;22.00;19.75;;;;;12.21;69.02;102344.75;4959127;28;45262;-77
2021/10/27 03:08:28;;;;;;;;;19.50;17.25;;;;;12.22;69.27;102353.56;4948568;28;45239;-77
2021/10/27 03:10:54;;;;;;;;;21.75;20.50;;;;;12.20;69.14;102348.28;4939816;28;46187;-77
2021/10/27 03:13:20;;;;;;;;;21.00;20.25;;;;;12.20;68.90;102350.91;4943679;28;45293;-77
2021/10/27 03:15:45;;;;;;;;;22.50;19.50;;;;;12.18;69.19;102357.97;4959459;28;45216;-76
2021/10/27 03:18:10;;;;;;;;;20.75;19.50;;;;;12.18;68.59;102357.09;4940198;28;45277;-76
2021/10/27 03:20:37;;;;;;;;;21.00;19.25;;;;;12.15;68.96;102350.97;4941146;28;45201;-75
2021/10/27 03:23:03;;;;;;;;;21.25;17.75;;;;;12.14;68.96;102358.91;4941746;28;45354;-76
2021/10/27 03:25:28;;;;;;;;;24.25;23.00;;;;;12.11;69.04;102351.91;4959438;28;45446;-76
2021/10/27 03:27:54;;;;;;;;;21.00;20.25;;;;;12.10;69.05;102341.38;4960238;28;45421;-76
2021/10/27 03:30:19;;;;;;;;;23.00;20.75;;;;;12.11;68.92;102348.38;4954532;28;45394;-76
2021/10/27 03:32:45;;;;;;;;;22.50;20.75;;;;;12.09;69.15;102344.91;4960178;28;45467;-76
2021/10/27 03:35:11;;;;;;;;;21.00;19.25;;;;;12.04;68.88;102330.03;4958789;28;45334;-76
2021/10/27 03:37:36;;;;;;;;;20.25;19.75;;;;;12.06;68.91;102339.66;4960673;28;45347;-76
2021/10/27 03:40:04;;;;;;;;;22.75;19.50;;;;;12.04;68.99;102342.34;4958593;28;46230;-76
2021/10/27 03:42:29;;;;;;;;;26.00;23.75;;;;;12.01;69.11;102334.47;4954733;28;45517;-79
2021/10/27 03:44:55;;;;;;;;;23.50;21.25;;;;;12.01;69.21;102343.25;4959091;28;45453;-80
2021/10/27 03:47:20;;;;;;;;;21.50;19.25;;;;;12.00;69.18;102344.13;4959933;28;45261;-79
2021/10/27 03:49:46;;;;;;;;;23.50;21.50;;;;;12.00;69.55;102340.63;4960171;28;45387;-78
2021/10/27 03:52:11;;;;;;;;;23.50;23.00;;;;;11.99;69.32;102341.50;4959278;28;46145;-77
2021/10/27 03:54:37;;;;;;;;;23.50;21.25;;;;;11.99;69.58;102333.59;4959922;28;45487;-77
2021/10/27 03:57:02;;;;;;;;;23.25;19.25;;;;;12.00;69.38;102338.00;4958638;28;45275;-74
2021/10/27 03:59:28;;;;;;;;;19.75;17.75;;;;;12.01;69.41;102342.38;4945727;28;45704;-74
2021/10/27 04:01:53;;;;;;;;;24.00;22.25;;;;;12.00;69.27;102346.75;4957502;28;46920;-75
2021/10/27 04:04:18;;;;;;;;;24.50;20.75;;;;;12.00;69.47;102343.28;4956563;28;45404;-76
2021/10/27 04:06:44;;;;;;;;;19.75;17.50;;;;;12.00;69.44;102352.03;4952751;28;45379;-76
2021/10/27 04:09:09;;;;;;;;;17.25;16.25;;;;;12.00;69.34;102341.47;4958668;28;46155;-76
2021/10/27 04:11:34;;;;;;;;;24.00;20.00;;;;;11.98;69.04;102353.81;4974130;28;47177;-76
2021/10/27 04:14:00;;;;;;;;;23.00;19.00;;;;;11.97;69.06;102343.31;4974748;28;45397;-75
2021/10/27 04:16:25;;;;;;;;;17.50;16.25;;;;;11.96;69.22;102346.81;4958104;28;45343;-76
2021/10/27 04:18:51;;;;;;;;;21.25;17.00;;;;;11.94;68.86;102338.94;4958482;28;46304;-77
2021/10/27 04:21:16;;;;;;;;;19.25;17.25;;;;;11.94;69.25;102336.31;4961266;28;45845;-77
2021/10/27 04:23:41;;;;;;;;;24.25;17.75;;;;;11.92;68.75;102333.72;4962799;28;45413;-77
2021/10/27 04:26:07;;;;;;;;;19.75;16.75;;;;;11.93;69.11;102338.06;4955212;28;45336;-78
2021/10/27 04:28:33;;;;;;;;;18.50;18.50;;;;;11.89;69.06;102336.38;4962986;28;45245;-78
2021/10/27 04:31:01;;;;;;;;;26.50;19.50;;;;;11.88;69.13;102339.88;4961704;28;45446;-75
2021/10/27 04:33:27;;;;;;;;;25.75;20.25;;;;;11.88;69.10;102345.16;4962605;28;45773;-75
2021/10/27 04:35:52;;;;;;;;;21.75;21.25;;;;;11.85;69.12;102339.06;4963234;28;45383;-76
2021/10/27 04:38:20;;;;;;;;;21.75;20.00;;;;;11.84;69.21;102343.47;4962822;28;45358;-76
2021/10/27 04:40:46;;;;;;;;;23.25;20.75;;;;;11.82;69.07;102354.03;4962112;28;46412;-75
2021/10/27 04:43:11;;;;;;;;;20.75;19.50;;;;;11.81;69.23;102349.63;4961877;28;45488;-75
2021/10/27 04:45:37;;;;;;;;;22.25;21.25;;;;;11.84;69.24;102359.25;4977496;28;45433;-75
2021/10/27 04:48:03;;;;;;;;;19.75;17.75;;;;;11.82;68.95;102353.16;4961934;28;45429;-75
2021/10/27 04:50:30;;;;;;;;;20.75;20.25;;;;;11.79;69.29;102351.41;4974317;28;48410;-75
2021/10/27 04:52:55;;;;;;;;;21.00;17.75;;;;;11.78;69.05;102352.28;4960230;28;45387;-76
2021/10/27 04:55:21;;;;;;;;;25.75;20.75;;;;;11.79;69.17;102356.69;4962159;28;45206;-76
2021/10/27 04:57:47;;;;;;;;;20.75;20.00;;;;;11.75;69.11;102351.47;4954348;28;45230;-76
2021/10/27 05:00:13;;;;;;;;;23.50;19.50;;;;;11.76;69.02;102363.75;4942921;28;45418;-76
2021/10/27 05:02:39;;;;;;;;;24.50;19.25;;;;;11.77;69.25;102365.50;4960846;28;45387;-75
2021/10/27 05:05:06;;;;;;;;;22.75;19.75;;;;;11.73;69.12;102366.44;4961601;28;45427;-76
2021/10/27 05:07:32;;;;;;;;;22.00;20.75;;;;;11.73;69.18;102361.16;4961448;28;45791;-76
2021/10/27 05:09:57;;;;;;;;;25.75;19.25;;;;;11.69;69.16;102366.47;4956008;28;46425;-76
2021/10/27 05:12:23;;;;;;;;;21.00;19.50;;;;;11.69;69.18;102357.69;4962247;28;45411;-76
2021/10/27 05:14:49;;;;;;;;;19.25;18.75;;;;;11.69;69.03;102362.94;4953670;28;45426;-76
2021/10/27 05:17:15;;;;;;;;;21.50;20.50;;;;;11.68;69.01;102358.59;4962214;28;45252;-76
2021/10/27 05:19:43;;;;;;;;;24.25;20.50;;;;;11.64;69.18;102349.84;4962103;28;46535;-77
2021/10/27 05:22:09;;;;;;;;;23.25;21.50;;;;;11.65;68.97;102366.53;4962263;28;46164;-77
2021/10/27 05:24:35;;;;;;;;;20.00;19.75;;;;;11.61;68.97;102356.88;4960236;28;45435;-77
2021/10/27 05:27:01;;;;;;;;;27.75;19.75;;;;;11.64;69.04;102364.75;4953038;28;45275;-77
2021/10/27 05:29:27;;;;;;;;;23.50;21.25;;;;;11.60;69.02;102353.41;4954290;28;45325;-76
2021/10/27 05:31:52;;;;;;;;;21.75;19.25;;;;;11.59;69.16;102352.53;4959974;28;45497;-75
2021/10/27 05:34:18;;;;;;;;;25.00;21.25;;;;;11.59;69.07;102352.53;4960150;28;45983;-75
2021/10/27 05:36:44;;;;;;;;;21.25;20.25;;;;;11.58;69.03;102344.66;4959207;28;47111;-75
2021/10/27 05:39:13;;;;;;;;;22.50;21.25;;;;;11.56;69.09;102351.66;4956598;28;46732;-75
2021/10/27 05:41:44;;;;;;;;;27.25;23.75;;;;;11.55;69.34;102347.31;4959027;28;45330;-75
2021/10/27 05:44:09;;;;;;;;;21.25;19.25;;;;;11.55;69.07;102344.69;4962141;28;45297;-76
2021/10/27 05:46:35;;;;;;;;;29.50;24.75;;;;;11.51;69.00;102335.94;4953540;28;47785;-75
2021/10/27 05:49:10;;;;;;;;;31.75;27.50;;;;;11.53;69.19;102341.19;4960438;28;45459;-76
2021/10/27 05:51:47;;;;;;;;;27.75;24.00;;;;;11.52;69.29;102345.59;4961018;28;45673;-78
2021/10/27 05:56:56;;;;;;;;;28.00;24.25;;;;;11.49;69.20;102332.44;4953735;28;45416;-76
2021/10/27 05:59:22;;;;;;;;;23.50;22.25;;;;;11.47;69.19;102337.75;4955092;28;45503;-76
2021/10/27 06:01:47;;;;;;;;;22.50;21.00;;;;;11.49;69.02;102337.72;4953269;28;45214;-76
2021/10/27 06:04:16;;;;;;;;;21.00;21.00;;;;;11.48;69.88;102336.84;4958231;28;45419;-76
2021/10/27 06:06:41;;;;;;;;;31.25;24.75;;;;;11.48;69.21;102339.47;4959551;28;46433;-76
2021/10/27 06:09:07;;;;;;;;;23.25;22.25;;;;;11.45;69.23;102342.16;4959843;28;45441;-76
2021/10/27 06:11:33;;;;;;;;;22.75;19.25;;;;;11.43;69.46;102343.91;4959689;28;45423;-76
2021/10/27 06:14:01;;;;;;;;;24.00;19.50;;;;;11.43;69.51;102335.16;4959957;28;45267;-76
2021/10/27 06:16:26;;;;;;;;;26.00;23.75;;;;;11.41;69.54;102332.53;4959886;28;46527;-76
2021/10/27 06:18:51;;;;;;;;;29.00;23.75;;;;;11.42;69.20;102333.41;4958637;28;48061;-76
2021/10/27 06:21:17;;;;;;;;;19.00;17.00;;;;;11.40;69.27;102333.44;4951513;28;45258;-76
2021/10/27 06:23:43;;;;;;;;;25.50;23.00;;;;;11.41;69.44;102340.41;4957551;28;45370;-75
2021/10/27 06:26:08;;;;;;;;;28.25;24.00;;;;;11.39;69.32;102338.69;4958888;28;45609;-76
2021/10/27 06:29:10;;;;;;;;;27.75;24.50;;;;;11.41;69.36;102343.06;4961231;28;46183;-76
2021/10/27 06:31:33;;;;;;;;;20.50;20.00;;;;;11.37;69.55;102341.34;4953660;28;45828;-76
2021/10/27 06:36:43;;;;;;;;;28.00;26.25;;;;;11.37;69.26;102359.78;4950203;28;45364;-75
2021/10/27 06:47:11;;;;;;;;;28.50;22.25;;;;;11.31;69.49;102347.53;4960825;28;45444;-75
2021/10/27 06:49:36;;;;;;;;;35.00;30.00;;;;;11.33;69.56;102356.28;4959186;28;45341;-75
2021/10/27 06:52:02;;;;;;;;;29.75;26.00;;;;;11.32;69.71;102364.22;4959417;28;45250;-76
2021/10/27 06:54:28;;;;;;;;;29.75;22.75;;;;;11.31;69.57;102362.50;4958722;28;45527;-75
2021/10/27 06:56:53;;;;;;;;;27.00;25.00;;;;;11.31;69.61;102362.50;4948981;28;45254;-75
2021/10/27 07:15:35;;;;;;;;;28.25;23.50;;;;;11.32;69.96;102380.00;4938714;28;45388;-75
2021/10/27 07:18:01;;;;;;;;;32.00;29.00;;;;;11.35;70.30;102385.25;4956949;28;45348;-76
2021/10/27 07:20:28;;;;;;;;;22.50;19.00;;;;;11.38;70.29;102394.88;4958881;28;47008;-75
2021/10/27 07:23:01;;;;;;;;;31.75;25.75;;;;;11.38;70.29;102387.00;4959548;28;45499;-75
2021/10/27 07:25:29;;;;;;;;;26.75;23.75;;;;;11.41;70.33;102390.44;4959677;28;45513;-75
2021/10/27 07:27:54;;;;;;;;;33.75;26.00;;;;;11.45;70.27;102388.66;4960350;28;45487;-76
2021/10/27 07:30:20;;;;;;;;;30.00;25.00;;;;;11.48;70.58;102393.91;4959947;28;46041;-76
2021/10/27 07:32:51;;;;;;;;;30.50;28.50;;;;;11.50;70.52;102394.75;4957945;28;45305;-76
2021/10/27 07:35:23;;;;;;;;;28.50;25.00;;;;;11.53;70.54;102401.75;4973746;28;45544;-76
2021/10/27 07:40:41;;;;;;;;;27.75;26.50;;;;;11.61;70.49;102402.53;4960122;28;45370;-76
2021/10/27 07:43:12;;;;;;;;;34.25;29.75;;;;;11.67;70.55;102409.50;4959462;28;45245;-76
2021/10/27 07:45:40;;;;;;;;;32.75;28.50;;;;;11.69;70.96;102413.88;4947532;28;45549;-75
2021/10/27 07:48:06;;;;;;;;;30.25;24.25;;;;;11.72;71.13;102410.34;4959810;28;45471;-75
2021/10/27 07:50:33;;;;;;;;;27.75;24.50;;;;;11.79;70.57;102419.91;4960385;28;45464;-75
2021/10/27 07:53:00;;;;;;;;;30.25;23.75;;;;;11.81;70.71;102414.63;4959449;28;45476;-76
2021/10/27 07:55:27;;;;;;;;;26.25;23.75;;;;;11.86;70.58;102418.06;4954295;28;45439;-75
2021/10/27 07:57:52;;;;;;;;;24.75;23.00;;;;;11.88;70.55;102411.03;4963386;28;45431;-75
2021/10/27 08:00:19;;;;;;;;;31.25;24.75;;;;;11.92;70.50;102418.03;4963472;28;45450;-75
2021/10/27 08:02:45;;;;;;;;;25.00;24.00;;;;;11.95;70.68;102421.50;4954603;28;45434;-76
2021/10/27 08:05:12;;;;;;;;;26.50;24.75;;;;;11.98;70.43;102421.44;4956731;28;45234;-75
2021/10/27 08:07:49;;;;;;;;;26.00;26.00;;;;;12.04;70.63;102421.38;4943900;28;45225;-76
2021/10/27 08:10:19;;;;;;;;;28.00;24.25;;;;;12.04;70.64;102426.66;4956629;28;45397;-76
2021/10/27 08:12:46;;;;;;;;;34.75;27.25;;;;;12.07;70.49;102424.00;4959656;28;45694;-75
2021/10/27 08:15:12;;;;;;;;;34.50;29.25;;;;;12.10;70.72;102429.22;4962997;28;45391;-75
2021/10/27 08:17:38;;;;;;;;;29.75;28.00;;;;;12.13;70.57;102428.34;4962811;28;45546;-76
2021/10/27 08:20:06;;;;;;;;;31.75;26.75;;;;;12.17;70.70;102426.53;4962582;28;45451;-76
2021/10/27 08:22:33;;;;;;;;;29.25;25.75;;;;;12.20;70.75;102432.63;4962877;28;45332;-76
2021/10/27 08:25:01;;;;;;;;;34.50;30.00;;;;;12.22;70.33;102430.84;4963138;28;45253;-76
2021/10/27 08:27:27;;;;;;;;;29.75;27.75;;;;;12.26;70.42;102435.22;4963051;28;45364;-76
2021/10/27 08:29:53;;;;;;;;;27.00;26.00;;;;;12.28;70.30;102429.91;4961328;28;45483;-76
2021/10/27 08:32:30;;;;;;;;;30.75;26.00;;;;;12.30;70.60;102428.13;4957336;28;45344;-76
2021/10/27 08:34:56;;;;;;;;;30.00;25.75;;;;;12.34;70.32;102429.84;4957379;28;45439;-76
2021/10/27 08:37:22;;;;;;;;;29.50;27.75;;;;;12.38;70.29;102431.53;4948365;28;46432;-77
2021/10/27 08:39:48;;;;;;;;;31.50;27.00;;;;;12.42;70.38;102426.22;4953066;28;46511;-75
2021/10/27 08:42:14;;;;;;;;;27.50;25.50;;;;;12.44;70.31;102424.44;4958955;28;45621;-75
2021/10/27 08:44:43;;;;;;;;;32.25;29.00;;;;;12.49;70.39;102425.25;4959444;28;45459;-76
2021/10/27 08:47:09;;;;;;;;;29.00;28.25;;;;;12.54;70.34;102428.69;4959049;28;45478;-75
2021/10/27 08:49:38;;;;;;;;;34.50;29.75;;;;;12.55;70.45;102421.63;4961643;28;45507;-75
2021/10/27 08:52:07;;;;;;;;;37.00;31.00;;;;;12.60;70.40;102425.09;4957734;28;46155;-75
2021/10/27 08:54:33;;;;;;;;;34.00;29.25;;;;;12.62;70.30;102423.28;4961752;28;45483;-75
2021/10/27 08:57:07;;;;;;;;;32.00;27.50;;;;;12.69;70.52;102416.19;4959920;28;45606;-75
2021/10/27 10:06:12;;;;;;;;;42.25;31.75;;;;;13.56;69.50;102405.03;4961393;28;45324;-75
2021/10/27 10:08:39;;;;;;;;;36.25;33.50;;;;;13.58;69.66;102398.00;4961612;28;45221;-75
2021/10/27 10:11:04;;;;;;;;;41.50;34.50;;;;;13.62;69.62;102397.03;4949431;28;45494;-75
2021/10/27 10:13:34;;;;;;;;;46.00;37.25;;;;;13.67;69.44;102405.75;4961273;28;45422;-76
2021/10/27 10:16:01;;;;;;;;;44.00;33.75;;;;;13.69;69.29;102406.59;4954748;28;45480;-75
2021/10/27 10:18:28;;;;;;;;;42.00;35.50;;;;;13.73;69.32;102402.97;4940931;28;45776;-76
2021/10/27 10:20:54;;;;;;;;;41.75;36.00;;;;;13.77;69.00;102402.94;4956203;28;45333;-75
2021/10/27 10:23:24;;;;;;;;;47.25;37.25;;;;;13.82;68.96;102403.72;4961127;28;45707;-76
2021/10/27 10:25:57;;;;;;;;;51.25;36.25;;;;;13.84;69.18;102407.19;4961161;28;45470;-75
2021/10/27 10:28:26;;;;;;;;;48.50;35.25;;;;;13.90;69.36;102408.84;4961389;28;45967;-75
2021/10/27 10:31:00;;;;;;;;;49.75;38.25;;;;;13.96;69.33;102414.00;4960265;28;45402;-75
2021/10/27 10:33:46;;;;;;;;;47.75;37.50;;;;;14.03;69.08;102412.09;4960769;28;45222;-75
2021/10/27 10:36:20;;;;;;;;;44.25;36.25;;;;;14.08;68.93;102410.22;4961236;28;45416;-75
2021/10/27 11:01:33;;;;;;;;;42.25;35.00;;;;;14.20;68.84;102387.94;4958384;28;45405;-75
2021/10/27 11:11:48;;;;;;;;;39.25;32.75;;;;;14.24;68.87;102386.09;4948324;28;45361;-75
2021/10/27 11:26:28;;;;;;;;;26.00;22.50;;;;;14.39;69.13;102356.66;4945607;28;45774;-75
2021/10/27 11:40:37;;;;;;;;;27.75;25.25;;;;;14.60;68.69;102335.00;4939463;28;45510;-75
2021/10/27 11:45:42;;;;;;;;;23.75;18.75;;;;;14.67;68.41;102327.81;4940038;28;45146;-75
2021/10/27 11:48:22;;;;;;;;;23.75;22.75;;;;;14.70;68.56;102320.66;4937105;28;45364;-75
2021/10/27 11:50:48;;;;;;;;;21.50;20.75;;;;;14.76;68.47;102311.69;4944090;28;45486;-75
2021/10/27 11:53:31;;;;;;;;;23.00;17.75;;;;;14.80;68.54;102315.13;4943707;28;45561;-75
2021/10/27 11:56:15;;;;;;;;;19.00;18.25;;;;;14.83;68.36;102315.03;4931243;28;45512;-75
2021/10/27 11:58:46;;;;;;;;;26.00;21.25;;;;;14.88;68.66;102307.88;4940933;28;45259;-75
2021/10/27 12:01:13;;;;;;;;;14.25;14.25;;;;;14.91;68.24;102304.28;4943338;28;45395;-75
2021/10/27 12:03:41;;;;;;;;;20.00;19.00;;;;;14.95;67.86;102304.16;4935977;28;47500;-75
2021/10/27 12:06:14;;;;;;;;;17.25;15.25;;;;;14.99;67.94;102304.94;4937611;28;45693;-75
2021/10/27 12:11:29;;;;;;;;;16.50;15.25;;;;;15.07;67.55;102292.38;4937893;28;45488;-75
2021/10/27 12:13:59;;;;;;;;;15.25;15.25;;;;;15.12;67.61;102278.13;4942941;28;45590;-75
2021/10/27 12:18:57;;;;;;;;;16.00;15.50;;;;;15.19;67.51;102264.69;4938666;28;45166;-75
2021/10/27 12:21:25;;;;;;;;;14.00;13.00;;;;;15.22;67.45;102258.44;4928367;28;45307;-75
2021/10/27 12:23:51;;;;;;;;;18.50;16.25;;;;;15.26;67.03;102261.88;4927190;28;45320;-76
2021/10/27 12:26:18;;;;;;;;;15.50;14.25;;;;;15.28;67.58;102252.94;4941175;28;45257;-75
2021/10/27 12:28:44;;;;;;;;;10.25;10.25;;;;;15.29;66.87;102244.09;4957743;28;45482;-75
2021/10/27 12:31:20;;;;;;;;;14.75;13.75;;;;;15.34;66.92;102241.31;4930969;28;45388;-76
2021/10/27 12:33:47;;;;;;;;;16.50;15.00;;;;;15.35;66.84;102244.84;4931912;28;45506;-75
2021/10/27 12:36:28;;;;;;;;;10.25;10.25;;;;;15.40;66.86;102241.16;4936779;28;45304;-76
2021/10/27 12:39:11;;;;;;;;;13.00;11.50;;;;;15.42;67.00;102230.50;4945451;28;45509;-75
2021/10/27 12:41:37;;;;;;;;;13.75;13.75;;;;;15.46;67.02;102229.47;4957402;28;46545;-75
2021/10/27 12:44:25;;;;;;;;;13.25;13.00;;;;;15.52;66.84;102229.31;4939765;28;45405;-75
2021/10/27 12:47:11;;;;;;;;;12.00;9.50;;;;;15.56;66.69;102223.91;4943461;28;45376;-75
2021/10/27 12:49:38;;;;;;;;;15.50;15.25;;;;;15.57;66.68;102212.41;4943631;28;45440;-75
2021/10/27 12:52:26;;;;;;;;;13.00;10.00;;;;;15.60;66.74;102210.53;4942569;28;45436;-75
2021/10/27 12:55:18;;;;;;;;;13.50;10.50;;;;;15.64;66.70;102211.28;4943235;28;46599;-75
2021/10/27 12:57:56;;;;;;;;;9.75;7.75;;;;;15.64;66.78;102201.56;4941330;28;45293;-75
2021/10/27 13:00:47;;;;;;;;;14.50;13.00;;;;;15.70;66.84;102192.56;4947441;28;45325;-75
2021/10/27 13:03:38;;;;;;;;;13.00;11.00;;;;;15.73;66.62;102194.22;4938260;28;45634;-75
2021/10/27 13:21:40;;;;;;;;;9.00;8.25;;;;;15.90;65.88;102161.84;4930364;28;45380;-75
2021/10/27 13:32:00;;;;;;;;;7.25;7.25;;;;;16.01;65.44;102155.34;4942886;28;45195;-75
2021/10/27 13:34:26;;;;;;;;;11.00;6.75;;;;;16.02;65.23;102157.97;4942145;28;45476;-75
2021/10/27 13:36:52;;;;;;;;;6.00;6.00;;;;;16.02;65.20;102154.44;4934651;28;45332;-75
2021/10/27 13:39:18;;;;;;;;;5.75;5.00;;;;;16.04;64.80;102144.63;4934844;28;45414;-75
2021/10/27 13:41:48;;;;;;;;;5.50;5.50;;;;;16.07;64.55;102149.88;4939212;28;45273;-76
2021/10/27 13:44:18;;;;;;;;;6.00;5.00;;;;;16.08;64.56;102152.47;4930956;28;45375;-76
2021/10/27 14:08:18;;;;;;;;;4.75;4.75;;;;;16.21;64.59;102112.25;4942000;28;45218;-75
2021/10/27 14:40:44;;;;;;;;;5.00;4.50;;;;;16.27;63.96;102095.28;4941478;28;45447;-76
2021/10/27 14:58:49;;;;;;;;;5.25;5.25;;;;;16.29;63.39;102090.78;4941608;28;45229;-77
2021/10/27 15:21:21;;;;;;;;;5.50;5.50;;;;;16.19;63.34;102066.38;4938928;28;45353;-76
2021/10/27 15:24:03;;;;;;;;;6.00;6.00;;;;;16.18;63.25;102068.16;4934225;28;45541;-76
2021/10/27 15:31:41;;;;;;;;;4.25;4.25;;;;;16.14;63.27;102065.66;4939071;28;45540;-76
2021/10/27 15:36:59;;;;;;;;;4.00;4.00;;;;;16.09;63.15;102057.88;4941048;28;45456;-76
2021/10/27 15:52:54;;;;;;;;;3.50;3.50;;;;;15.97;63.51;102049.41;4920655;28;45279;-76
2021/10/27 15:55:20;;;;;;;;;3.75;3.75;;;;;15.96;63.59;102054.75;4921260;28;45429;-76
2021/10/27 15:57:45;;;;;;;;;4.00;3.00;;;;;15.94;63.54;102056.59;4938057;28;45456;-76
2021/10/27 16:00:11;;;;;;;;;6.00;5.00;;;;;15.91;63.69;102049.59;4936128;28;45278;-76
2021/10/27 16:02:37;;;;;;;;;4.50;4.00;;;;;15.88;63.51;102052.34;4938974;28;46144;-76
2021/10/27 16:05:03;;;;;;;;;4.00;4.00;;;;;15.85;63.83;102057.78;4940347;28;46342;-76